sensor_id;sensor_type;location;lat;lon;timestamp;P1;durP1;ratioP1;P2;durP2;ratioP2
43142;SDS011;28750;59.842;17.584;2022-07-29T00:00:06;2.78;;;0.70;;
43142;SDS011;28750;59.842;17.584;2022-07-29T00:02:35;1.50;;;0.53;;
43142;SDS011;28750;59.842;17.584;2022-07-29T00:05:03;0.50;;;0.50;;
43142;SDS011;28750;59.842;17.584;2022-07-29T00:07:30;0.50;;;0.50;;
43142;SDS011;28750;59.842;17.584;2022-07-29T00:09:57;2.10;;;0.70;;
43142;SDS011;28750;59.842;17.584;2022-07-29T00:12:25;0.50;;;0.50;;
43142;SDS011;28750;59.842;17.584;2022-07-29T00:14:55;0.70;;;0.45;;
43142;SDS011;28750;59.842;17.584;2022-07-29T00:17:22;0.73;;;0.60;;
43142;SDS011;28750;59.842;17.584;2022-07-29T00:19:50;0.50;;;0.50;;
43142;SDS011;28750;59.842;17.584;2022-07-29T00:22:18;0.50;;;0.50;;
43142;SDS011;28750;59.842;17.584;2022-07-29T00:24:49;1.92;;;0.63;;
43142;SDS011;28750;59.842;17.584;2022-07-29T00:27:16;0.40;;;0.40;;
43142;SDS011;28750;59.842;17.584;2022-07-29T00:29:44;1.73;;;0.60;;
43142;SDS011;28750;59.842;17.584;2022-07-29T00:32:11;1.65;;;0.50;;
43142;SDS011;28750;59.842;17.584;2022-07-29T00:34:38;0.52;;;0.52;;
43142;SDS011;28750;59.842;17.584;2022-07-29T00:37:22;0.50;;;0.50;;
43142;SDS011;28750;59.842;17.584;2022-07-29T00:39:49;1.55;;;0.35;;
43142;SDS011;28750;59.842;17.584;2022-07-29T00:42:16;2.80;;;0.50;;
43142;SDS011;28750;59.842;17.584;2022-07-29T00:44:44;1.48;;;0.45;;
43142;SDS011;28750;59.842;17.584;2022-07-29T00:47:11;0.55;;;0.50;;
43142;SDS011;28750;59.842;17.584;2022-07-29T00:49:38;0.50;;;0.50;;
43142;SDS011;28750;59.842;17.584;2022-07-29T00:52:07;1.25;;;0.47;;
43142;SDS011;28750;59.842;17.584;2022-07-29T00:54:35;0.43;;;0.43;;
43142;SDS011;28750;59.842;17.584;2022-07-29T00:57:04;0.73;;;0.60;;
43142;SDS011;28750;59.842;17.584;2022-07-29T00:59:33;0.40;;;0.40;;
43142;SDS011;28750;59.842;17.584;2022-07-29T01:02:00;0.60;;;0.30;;
43142;SDS011;28750;59.842;17.584;2022-07-29T01:04:28;0.50;;;0.50;;
43142;SDS011;28750;59.842;17.584;2022-07-29T01:06:56;0.50;;;0.50;;
43142;SDS011;28750;59.842;17.584;2022-07-29T01:09:24;1.35;;;0.88;;
43142;SDS011;28750;59.842;17.584;2022-07-29T01:11:51;0.55;;;0.55;;
43142;SDS011;28750;59.842;17.584;2022-07-29T01:14:19;0.68;;;0.52;;
43142;SDS011;28750;59.842;17.584;2022-07-29T01:22:35;0.77;;;0.52;;
43142;SDS011;28750;59.842;17.584;2022-07-29T01:27:59;0.55;;;0.55;;
43142;SDS011;28750;59.842;17.584;2022-07-29T01:30:37;0.80;;;0.80;;
43142;SDS011;28750;59.842;17.584;2022-07-29T01:33:09;0.85;;;0.55;;
43142;SDS011;28750;59.842;17.584;2022-07-29T01:36:05;0.60;;;0.60;;
43142;SDS011;28750;59.842;17.584;2022-07-29T01:38:40;0.50;;;0.50;;
43142;SDS011;28750;59.842;17.584;2022-07-29T01:41:15;1.48;;;0.57;;
43142;SDS011;28750;59.842;17.584;2022-07-29T01:43:47;2.28;;;0.60;;
43142;SDS011;28750;59.842;17.584;2022-07-29T01:46:21;0.70;;;0.70;;
43142;SDS011;28750;59.842;17.584;2022-07-29T01:49:02;3.38;;;0.50;;
43142;SDS011;28750;59.842;17.584;2022-07-29T01:51:47;1.23;;;0.80;;
43142;SDS011;28750;59.842;17.584;2022-07-29T01:56:55;1.40;;;0.80;;
43142;SDS011;28750;59.842;17.584;2022-07-29T01:59:23;2.05;;;0.47;;
43142;SDS011;28750;59.842;17.584;2022-07-29T02:01:53;3.00;;;0.55;;
43142;SDS011;28750;59.842;17.584;2022-07-29T02:04:23;0.90;;;0.75;;
43142;SDS011;28750;59.842;17.584;2022-07-29T02:06:54;1.60;;;0.63;;
43142;SDS011;28750;59.842;17.584;2022-07-29T02:09:26;1.38;;;0.70;;
43142;SDS011;28750;59.842;17.584;2022-07-29T02:11:56;0.65;;;0.65;;
43142;SDS011;28750;59.842;17.584;2022-07-29T02:14:26;0.82;;;0.68;;
43142;SDS011;28750;59.842;17.584;2022-07-29T02:16:59;1.38;;;0.80;;
43142;SDS011;28750;59.842;17.584;2022-07-29T02:19:28;0.68;;;0.50;;
43142;SDS011;28750;59.842;17.584;2022-07-29T02:21:58;0.75;;;0.50;;
43142;SDS011;28750;59.842;17.584;2022-07-29T02:24:26;0.68;;;0.68;;
43142;SDS011;28750;59.842;17.584;2022-07-29T02:26:54;1.75;;;0.70;;
43142;SDS011;28750;59.842;17.584;2022-07-29T02:29:23;0.93;;;0.60;;
43142;SDS011;28750;59.842;17.584;2022-07-29T02:31:53;1.88;;;0.55;;
43142;SDS011;28750;59.842;17.584;2022-07-29T02:34:21;3.25;;;0.73;;
43142;SDS011;28750;59.842;17.584;2022-07-29T02:36:49;0.60;;;0.52;;
43142;SDS011;28750;59.842;17.584;2022-07-29T02:39:18;0.73;;;0.70;;
43142;SDS011;28750;59.842;17.584;2022-07-29T02:41:47;0.60;;;0.55;;
43142;SDS011;28750;59.842;17.584;2022-07-29T02:44:21;2.65;;;0.68;;
43142;SDS011;28750;59.842;17.584;2022-07-29T02:49:41;0.50;;;0.50;;
43142;SDS011;28750;59.842;17.584;2022-07-29T02:52:47;2.03;;;0.47;;
43142;SDS011;28750;59.842;17.584;2022-07-29T02:56:00;1.75;;;0.70;;
43142;SDS011;28750;59.842;17.584;2022-07-29T02:58:29;2.45;;;0.73;;
43142;SDS011;28750;59.842;17.584;2022-07-29T03:01:08;2.40;;;0.70;;
43142;SDS011;28750;59.842;17.584;2022-07-29T03:03:57;1.02;;;0.68;;
43142;SDS011;28750;59.842;17.584;2022-07-29T03:06:29;1.15;;;0.68;;
43142;SDS011;28750;59.842;17.584;2022-07-29T03:08:59;0.77;;;0.60;;
43142;SDS011;28750;59.842;17.584;2022-07-29T03:11:26;0.65;;;0.63;;
43142;SDS011;28750;59.842;17.584;2022-07-29T03:13:53;0.70;;;0.70;;
43142;SDS011;28750;59.842;17.584;2022-07-29T03:16:21;0.70;;;0.70;;
43142;SDS011;28750;59.842;17.584;2022-07-29T03:18:49;2.40;;;0.80;;
43142;SDS011;28750;59.842;17.584;2022-07-29T03:21:16;1.80;;;0.80;;
43142;SDS011;28750;59.842;17.584;2022-07-29T03:23:44;1.42;;;0.90;;
43142;SDS011;28750;59.842;17.584;2022-07-29T03:26:11;1.85;;;0.70;;
43142;SDS011;28750;59.842;17.584;2022-07-29T03:28:39;2.83;;;0.77;;
43142;SDS011;28750;59.842;17.584;2022-07-29T03:31:07;0.98;;;0.60;;
43142;SDS011;28750;59.842;17.584;2022-07-29T03:33:34;3.90;;;0.68;;
43142;SDS011;28750;59.842;17.584;2022-07-29T03:36:01;6.22;;;0.93;;
43142;SDS011;28750;59.842;17.584;2022-07-29T03:38:29;1.05;;;0.50;;
43142;SDS011;28750;59.842;17.584;2022-07-29T03:41:07;3.95;;;0.80;;
43142;SDS011;28750;59.842;17.584;2022-07-29T03:43:37;3.50;;;0.70;;
43142;SDS011;28750;59.842;17.584;2022-07-29T03:46:07;0.68;;;0.68;;
43142;SDS011;28750;59.842;17.584;2022-07-29T03:48:37;1.60;;;0.60;;
43142;SDS011;28750;59.842;17.584;2022-07-29T03:51:08;1.05;;;0.85;;
43142;SDS011;28750;59.842;17.584;2022-07-29T03:53:36;1.40;;;0.40;;
43142;SDS011;28750;59.842;17.584;2022-07-29T03:56:03;0.50;;;0.50;;
43142;SDS011;28750;59.842;17.584;2022-07-29T03:58:32;0.70;;;0.70;;
43142;SDS011;28750;59.842;17.584;2022-07-29T04:01:01;3.08;;;0.70;;
43142;SDS011;28750;59.842;17.584;2022-07-29T04:03:28;3.47;;;0.65;;
43142;SDS011;28750;59.842;17.584;2022-07-29T04:06:00;1.05;;;0.82;;
43142;SDS011;28750;59.842;17.584;2022-07-29T04:08:32;0.60;;;0.60;;
43142;SDS011;28750;59.842;17.584;2022-07-29T04:11:00;0.73;;;0.60;;
43142;SDS011;28750;59.842;17.584;2022-07-29T04:13:27;3.13;;;0.73;;
43142;SDS011;28750;59.842;17.584;2022-07-29T04:15:54;1.55;;;0.80;;
43142;SDS011;28750;59.842;17.584;2022-07-29T04:18:21;0.80;;;0.73;;
43142;SDS011;28750;59.842;17.584;2022-07-29T04:20:49;2.03;;;0.70;;
43142;SDS011;28750;59.842;17.584;2022-07-29T04:23:16;1.85;;;0.65;;
43142;SDS011;28750;59.842;17.584;2022-07-29T04:25:43;1.35;;;0.82;;
43142;SDS011;28750;59.842;17.584;2022-07-29T04:28:10;2.33;;;0.70;;
43142;SDS011;28750;59.842;17.584;2022-07-29T04:30:37;1.23;;;0.60;;
43142;SDS011;28750;59.842;17.584;2022-07-29T04:33:05;2.45;;;0.57;;
43142;SDS011;28750;59.842;17.584;2022-07-29T04:35:34;2.42;;;0.65;;
43142;SDS011;28750;59.842;17.584;2022-07-29T04:38:05;0.77;;;0.77;;
43142;SDS011;28750;59.842;17.584;2022-07-29T04:40:33;0.60;;;0.60;;
43142;SDS011;28750;59.842;17.584;2022-07-29T04:43:00;0.65;;;0.60;;
43142;SDS011;28750;59.842;17.584;2022-07-29T04:45:27;0.95;;;0.60;;
43142;SDS011;28750;59.842;17.584;2022-07-29T04:47:54;1.05;;;0.60;;
43142;SDS011;28750;59.842;17.584;2022-07-29T04:50:22;1.45;;;0.60;;
43142;SDS011;28750;59.842;17.584;2022-07-29T04:52:49;0.70;;;0.70;;
43142;SDS011;28750;59.842;17.584;2022-07-29T04:55:16;2.15;;;1.05;;
43142;SDS011;28750;59.842;17.584;2022-07-29T04:57:43;0.88;;;0.82;;
43142;SDS011;28750;59.842;17.584;2022-07-29T05:00:10;1.65;;;0.50;;
43142;SDS011;28750;59.842;17.584;2022-07-29T05:02:37;0.80;;;0.70;;
43142;SDS011;28750;59.842;17.584;2022-07-29T05:05:04;1.75;;;0.70;;
43142;SDS011;28750;59.842;17.584;2022-07-29T05:07:32;2.63;;;1.05;;
43142;SDS011;28750;59.842;17.584;2022-07-29T05:09:59;2.85;;;0.85;;
43142;SDS011;28750;59.842;17.584;2022-07-29T05:12:26;0.70;;;0.68;;
43142;SDS011;28750;59.842;17.584;2022-07-29T05:14:53;0.60;;;0.60;;
43142;SDS011;28750;59.842;17.584;2022-07-29T05:17:20;0.88;;;0.50;;
43142;SDS011;28750;59.842;17.584;2022-07-29T05:19:47;2.00;;;0.57;;
43142;SDS011;28750;59.842;17.584;2022-07-29T05:22:16;1.15;;;0.85;;
43142;SDS011;28750;59.842;17.584;2022-07-29T05:24:44;0.65;;;0.50;;
43142;SDS011;28750;59.842;17.584;2022-07-29T05:27:12;1.60;;;0.80;;
43142;SDS011;28750;59.842;17.584;2022-07-29T05:29:39;0.95;;;0.60;;
43142;SDS011;28750;59.842;17.584;2022-07-29T05:32:06;1.42;;;0.70;;
43142;SDS011;28750;59.842;17.584;2022-07-29T05:34:33;0.80;;;0.50;;
43142;SDS011;28750;59.842;17.584;2022-07-29T05:37:00;1.58;;;0.70;;
43142;SDS011;28750;59.842;17.584;2022-07-29T05:39:27;1.48;;;0.60;;
43142;SDS011;28750;59.842;17.584;2022-07-29T05:41:54;3.25;;;0.70;;
43142;SDS011;28750;59.842;17.584;2022-07-29T05:44:21;1.65;;;0.57;;
43142;SDS011;28750;59.842;17.584;2022-07-29T05:46:48;1.90;;;0.68;;
43142;SDS011;28750;59.842;17.584;2022-07-29T05:49:15;0.45;;;0.40;;
43142;SDS011;28750;59.842;17.584;2022-07-29T05:51:42;0.50;;;0.40;;
43142;SDS011;28750;59.842;17.584;2022-07-29T05:54:08;1.17;;;0.45;;
43142;SDS011;28750;59.842;17.584;2022-07-29T05:56:36;1.80;;;0.68;;
43142;SDS011;28750;59.842;17.584;2022-07-29T05:59:03;0.38;;;0.35;;
43142;SDS011;28750;59.842;17.584;2022-07-29T06:01:30;1.42;;;0.40;;
43142;SDS011;28750;59.842;17.584;2022-07-29T06:03:57;0.40;;;0.40;;
43142;SDS011;28750;59.842;17.584;2022-07-29T06:06:24;2.10;;;0.35;;
43142;SDS011;28750;59.842;17.584;2022-07-29T06:08:51;0.70;;;0.65;;
43142;SDS011;28750;59.842;17.584;2022-07-29T06:11:18;1.08;;;0.70;;
43142;SDS011;28750;59.842;17.584;2022-07-29T06:13:45;1.25;;;0.40;;
43142;SDS011;28750;59.842;17.584;2022-07-29T06:16:12;2.75;;;0.70;;
43142;SDS011;28750;59.842;17.584;2022-07-29T06:18:39;2.63;;;0.93;;
43142;SDS011;28750;59.842;17.584;2022-07-29T06:21:09;0.95;;;0.68;;
43142;SDS011;28750;59.842;17.584;2022-07-29T06:23:37;1.88;;;0.60;;
43142;SDS011;28750;59.842;17.584;2022-07-29T06:26:04;0.88;;;0.50;;
43142;SDS011;28750;59.842;17.584;2022-07-29T06:28:32;2.15;;;0.50;;
43142;SDS011;28750;59.842;17.584;2022-07-29T06:30:59;0.68;;;0.45;;
43142;SDS011;28750;59.842;17.584;2022-07-29T06:33:26;2.05;;;0.70;;
43142;SDS011;28750;59.842;17.584;2022-07-29T06:35:53;0.50;;;0.50;;
43142;SDS011;28750;59.842;17.584;2022-07-29T06:38:20;1.80;;;0.47;;
43142;SDS011;28750;59.842;17.584;2022-07-29T06:40:47;1.00;;;0.50;;
43142;SDS011;28750;59.842;17.584;2022-07-29T06:43:37;0.75;;;0.50;;
43142;SDS011;28750;59.842;17.584;2022-07-29T06:46:15;1.15;;;0.70;;
43142;SDS011;28750;59.842;17.584;2022-07-29T06:48:43;1.73;;;0.68;;
43142;SDS011;28750;59.842;17.584;2022-07-29T06:51:12;0.90;;;0.60;;
43142;SDS011;28750;59.842;17.584;2022-07-29T06:53:39;1.15;;;0.70;;
43142;SDS011;28750;59.842;17.584;2022-07-29T06:56:07;0.57;;;0.50;;
43142;SDS011;28750;59.842;17.584;2022-07-29T06:58:34;0.93;;;0.63;;
43142;SDS011;28750;59.842;17.584;2022-07-29T07:01:02;1.33;;;0.95;;
43142;SDS011;28750;59.842;17.584;2022-07-29T07:03:31;0.93;;;0.65;;
43142;SDS011;28750;59.842;17.584;2022-07-29T07:05:58;0.40;;;0.40;;
43142;SDS011;28750;59.842;17.584;2022-07-29T07:08:25;0.63;;;0.60;;
43142;SDS011;28750;59.842;17.584;2022-07-29T07:10:52;0.93;;;0.65;;
43142;SDS011;28750;59.842;17.584;2022-07-29T07:13:20;2.28;;;0.85;;
43142;SDS011;28750;59.842;17.584;2022-07-29T07:15:47;3.50;;;0.60;;
43142;SDS011;28750;59.842;17.584;2022-07-29T07:18:14;0.57;;;0.47;;
43142;SDS011;28750;59.842;17.584;2022-07-29T07:20:42;1.27;;;0.60;;
43142;SDS011;28750;59.842;17.584;2022-07-29T07:23:09;0.45;;;0.45;;
43142;SDS011;28750;59.842;17.584;2022-07-29T07:25:36;0.50;;;0.50;;
43142;SDS011;28750;59.842;17.584;2022-07-29T07:28:03;0.30;;;0.30;;
43142;SDS011;28750;59.842;17.584;2022-07-29T07:30:30;0.22;;;0.22;;
43142;SDS011;28750;59.842;17.584;2022-07-29T07:32:57;2.33;;;0.40;;
43142;SDS011;28750;59.842;17.584;2022-07-29T07:35:25;0.63;;;0.40;;
43142;SDS011;28750;59.842;17.584;2022-07-29T07:37:53;0.35;;;0.30;;
43142;SDS011;28750;59.842;17.584;2022-07-29T07:40:21;0.40;;;0.40;;
43142;SDS011;28750;59.842;17.584;2022-07-29T07:42:48;0.50;;;0.40;;
43142;SDS011;28750;59.842;17.584;2022-07-29T07:45:15;0.40;;;0.40;;
43142;SDS011;28750;59.842;17.584;2022-07-29T07:47:42;0.52;;;0.47;;
43142;SDS011;28750;59.842;17.584;2022-07-29T07:50:10;0.45;;;0.30;;
43142;SDS011;28750;59.842;17.584;2022-07-29T07:52:47;0.98;;;0.30;;
43142;SDS011;28750;59.842;17.584;2022-07-29T07:55:15;2.80;;;0.30;;
43142;SDS011;28750;59.842;17.584;2022-07-29T07:57:42;0.47;;;0.47;;
43142;SDS011;28750;59.842;17.584;2022-07-29T08:00:11;0.55;;;0.30;;
43142;SDS011;28750;59.842;17.584;2022-07-29T08:02:39;0.32;;;0.32;;
43142;SDS011;28750;59.842;17.584;2022-07-29T08:05:08;0.30;;;0.30;;
43142;SDS011;28750;59.842;17.584;2022-07-29T08:07:36;0.93;;;0.35;;
43142;SDS011;28750;59.842;17.584;2022-07-29T08:10:03;0.73;;;0.38;;
43142;SDS011;28750;59.842;17.584;2022-07-29T08:12:31;0.90;;;0.45;;
43142;SDS011;28750;59.842;17.584;2022-07-29T08:14:58;0.32;;;0.30;;
43142;SDS011;28750;59.842;17.584;2022-07-29T08:17:25;2.08;;;0.50;;
43142;SDS011;28750;59.842;17.584;2022-07-29T08:19:53;0.70;;;0.30;;
43142;SDS011;28750;59.842;17.584;2022-07-29T08:22:20;0.35;;;0.28;;
43142;SDS011;28750;59.842;17.584;2022-07-29T08:24:47;1.45;;;0.30;;
43142;SDS011;28750;59.842;17.584;2022-07-29T08:27:20;0.32;;;0.32;;
43142;SDS011;28750;59.842;17.584;2022-07-29T08:29:47;0.30;;;0.30;;
43142;SDS011;28750;59.842;17.584;2022-07-29T08:32:14;0.30;;;0.30;;
43142;SDS011;28750;59.842;17.584;2022-07-29T08:34:41;0.30;;;0.30;;
43142;SDS011;28750;59.842;17.584;2022-07-29T08:37:11;0.90;;;0.27;;
43142;SDS011;28750;59.842;17.584;2022-07-29T08:39:38;1.10;;;0.60;;
43142;SDS011;28750;59.842;17.584;2022-07-29T08:42:05;1.48;;;0.40;;
43142;SDS011;28750;59.842;17.584;2022-07-29T08:44:32;0.22;;;0.22;;
43142;SDS011;28750;59.842;17.584;2022-07-29T08:47:00;0.28;;;0.28;;
43142;SDS011;28750;59.842;17.584;2022-07-29T08:49:27;0.20;;;0.20;;
43142;SDS011;28750;59.842;17.584;2022-07-29T08:51:54;0.30;;;0.30;;
43142;SDS011;28750;59.842;17.584;2022-07-29T08:54:23;0.30;;;0.30;;
43142;SDS011;28750;59.842;17.584;2022-07-29T08:56:51;0.55;;;0.30;;
43142;SDS011;28750;59.842;17.584;2022-07-29T08:59:19;0.40;;;0.40;;
43142;SDS011;28750;59.842;17.584;2022-07-29T09:01:47;1.55;;;0.20;;
43142;SDS011;28750;59.842;17.584;2022-07-29T09:04:16;0.30;;;0.30;;
43142;SDS011;28750;59.842;17.584;2022-07-29T09:06:46;1.40;;;0.20;;
43142;SDS011;28750;59.842;17.584;2022-07-29T09:09:16;1.65;;;0.38;;
43142;SDS011;28750;59.842;17.584;2022-07-29T09:11:43;1.50;;;0.30;;
43142;SDS011;28750;59.842;17.584;2022-07-29T09:14:11;0.52;;;0.43;;
43142;SDS011;28750;59.842;17.584;2022-07-29T09:16:45;0.65;;;0.30;;
43142;SDS011;28750;59.842;17.584;2022-07-29T09:19:19;0.57;;;0.40;;
43142;SDS011;28750;59.842;17.584;2022-07-29T09:22:06;0.28;;;0.28;;
43142;SDS011;28750;59.842;17.584;2022-07-29T09:27:22;0.35;;;0.35;;
43142;SDS011;28750;59.842;17.584;2022-07-29T09:30:04;0.43;;;0.30;;
43142;SDS011;28750;59.842;17.584;2022-07-29T09:32:56;2.03;;;0.40;;
43142;SDS011;28750;59.842;17.584;2022-07-29T09:35:25;0.30;;;0.30;;
43142;SDS011;28750;59.842;17.584;2022-07-29T09:37:52;0.30;;;0.30;;
43142;SDS011;28750;59.842;17.584;2022-07-29T09:40:21;0.30;;;0.30;;
43142;SDS011;28750;59.842;17.584;2022-07-29T09:42:53;0.73;;;0.47;;
43142;SDS011;28750;59.842;17.584;2022-07-29T09:45:26;0.40;;;0.40;;
43142;SDS011;28750;59.842;17.584;2022-07-29T09:47:59;1.58;;;0.28;;
43142;SDS011;28750;59.842;17.584;2022-07-29T09:50:44;0.32;;;0.32;;
43142;SDS011;28750;59.842;17.584;2022-07-29T09:53:33;0.30;;;0.30;;
43142;SDS011;28750;59.842;17.584;2022-07-29T09:56:03;0.30;;;0.30;;
43142;SDS011;28750;59.842;17.584;2022-07-29T09:58:31;3.13;;;0.30;;
43142;SDS011;28750;59.842;17.584;2022-07-29T10:00:58;1.23;;;0.30;;
43142;SDS011;28750;59.842;17.584;2022-07-29T10:03:25;0.30;;;0.30;;
43142;SDS011;28750;59.842;17.584;2022-07-29T10:06:08;0.30;;;0.30;;
43142;SDS011;28750;59.842;17.584;2022-07-29T10:08:38;0.30;;;0.30;;
43142;SDS011;28750;59.842;17.584;2022-07-29T10:11:11;0.90;;;0.30;;
43142;SDS011;28750;59.842;17.584;2022-07-29T10:13:40;0.43;;;0.40;;
43142;SDS011;28750;59.842;17.584;2022-07-29T10:16:08;0.80;;;0.32;;
43142;SDS011;28750;59.842;17.584;2022-07-29T10:18:37;0.20;;;0.20;;
43142;SDS011;28750;59.842;17.584;2022-07-29T10:21:05;0.30;;;0.30;;
43142;SDS011;28750;59.842;17.584;2022-07-29T10:23:32;1.20;;;0.30;;
43142;SDS011;28750;59.842;17.584;2022-07-29T10:26:00;0.30;;;0.30;;
43142;SDS011;28750;59.842;17.584;2022-07-29T10:28:29;1.02;;;0.35;;
43142;SDS011;28750;59.842;17.584;2022-07-29T10:31:02;0.35;;;0.30;;
43142;SDS011;28750;59.842;17.584;2022-07-29T10:36:54;0.28;;;0.28;;
43142;SDS011;28750;59.842;17.584;2022-07-29T10:42:11;1.65;;;0.40;;
43142;SDS011;28750;59.842;17.584;2022-07-29T10:44:48;0.32;;;0.30;;
43142;SDS011;28750;59.842;17.584;2022-07-29T10:47:25;1.27;;;0.32;;
43142;SDS011;28750;59.842;17.584;2022-07-29T10:49:59;0.65;;;0.30;;
43142;SDS011;28750;59.842;17.584;2022-07-29T10:55:33;0.80;;;0.40;;
43142;SDS011;28750;59.842;17.584;2022-07-29T10:58:15;0.30;;;0.30;;
43142;SDS011;28750;59.842;17.584;2022-07-29T11:00:48;0.20;;;0.20;;
43142;SDS011;28750;59.842;17.584;2022-07-29T11:06:03;0.63;;;0.30;;
43142;SDS011;28750;59.842;17.584;2022-07-29T11:08:30;0.40;;;0.40;;
43142;SDS011;28750;59.842;17.584;2022-07-29T11:13:49;0.40;;;0.40;;
43142;SDS011;28750;59.842;17.584;2022-07-29T11:16:19;0.28;;;0.28;;
43142;SDS011;28750;59.842;17.584;2022-07-29T11:21:41;0.20;;;0.20;;
43142;SDS011;28750;59.842;17.584;2022-07-29T11:24:12;3.85;;;0.40;;
43142;SDS011;28750;59.842;17.584;2022-07-29T11:26:41;0.30;;;0.30;;
43142;SDS011;28750;59.842;17.584;2022-07-29T11:29:15;0.30;;;0.30;;
43142;SDS011;28750;59.842;17.584;2022-07-29T11:31:48;0.20;;;0.20;;
43142;SDS011;28750;59.842;17.584;2022-07-29T11:34:29;0.38;;;0.38;;
43142;SDS011;28750;59.842;17.584;2022-07-29T11:39:34;1.70;;;0.50;;
43142;SDS011;28750;59.842;17.584;2022-07-29T11:45:01;1.30;;;0.20;;
43142;SDS011;28750;59.842;17.584;2022-07-29T11:47:38;0.68;;;0.40;;
43142;SDS011;28750;59.842;17.584;2022-07-29T11:50:18;0.35;;;0.35;;
43142;SDS011;28750;59.842;17.584;2022-07-29T11:52:55;0.25;;;0.22;;
43142;SDS011;28750;59.842;17.584;2022-07-29T11:55:23;0.35;;;0.20;;
43142;SDS011;28750;59.842;17.584;2022-07-29T11:57:51;0.40;;;0.40;;
43142;SDS011;28750;59.842;17.584;2022-07-29T12:00:39;0.95;;;0.40;;
43142;SDS011;28750;59.842;17.584;2022-07-29T12:03:08;0.20;;;0.20;;
43142;SDS011;28750;59.842;17.584;2022-07-29T12:05:37;0.40;;;0.40;;
43142;SDS011;28750;59.842;17.584;2022-07-29T12:08:13;0.22;;;0.22;;
43142;SDS011;28750;59.842;17.584;2022-07-29T12:10:44;2.38;;;0.25;;
43142;SDS011;28750;59.842;17.584;2022-07-29T12:13:12;0.50;;;0.40;;
43142;SDS011;28750;59.842;17.584;2022-07-29T12:15:40;1.98;;;0.30;;
43142;SDS011;28750;59.842;17.584;2022-07-29T12:18:16;2.58;;;0.38;;
43142;SDS011;28750;59.842;17.584;2022-07-29T12:20:46;0.25;;;0.25;;
43142;SDS011;28750;59.842;17.584;2022-07-29T12:23:14;0.35;;;0.35;;
43142;SDS011;28750;59.842;17.584;2022-07-29T12:25:43;0.50;;;0.50;;
43142;SDS011;28750;59.842;17.584;2022-07-29T12:28:11;0.47;;;0.47;;
43142;SDS011;28750;59.842;17.584;2022-07-29T12:30:44;0.70;;;0.40;;
43142;SDS011;28750;59.842;17.584;2022-07-29T12:33:26;0.47;;;0.40;;
43142;SDS011;28750;59.842;17.584;2022-07-29T12:35:56;0.30;;;0.30;;
43142;SDS011;28750;59.842;17.584;2022-07-29T12:40:53;1.63;;;0.35;;
43142;SDS011;28750;59.842;17.584;2022-07-29T12:43:21;1.77;;;0.38;;
43142;SDS011;28750;59.842;17.584;2022-07-29T12:45:52;0.75;;;0.30;;
43142;SDS011;28750;59.842;17.584;2022-07-29T12:48:38;0.40;;;0.40;;
43142;SDS011;28750;59.842;17.584;2022-07-29T12:51:07;0.40;;;0.40;;
43142;SDS011;28750;59.842;17.584;2022-07-29T12:53:35;0.98;;;0.32;;
43142;SDS011;28750;59.842;17.584;2022-07-29T12:56:03;0.38;;;0.32;;
43142;SDS011;28750;59.842;17.584;2022-07-29T12:58:36;0.40;;;0.40;;
43142;SDS011;28750;59.842;17.584;2022-07-29T13:03:52;0.40;;;0.40;;
43142;SDS011;28750;59.842;17.584;2022-07-29T13:06:36;0.45;;;0.45;;
43142;SDS011;28750;59.842;17.584;2022-07-29T13:11:44;0.40;;;0.40;;
43142;SDS011;28750;59.842;17.584;2022-07-29T13:17:00;1.13;;;0.50;;
43142;SDS011;28750;59.842;17.584;2022-07-29T13:19:48;0.30;;;0.30;;
43142;SDS011;28750;59.842;17.584;2022-07-29T13:22:17;0.40;;;0.40;;
43142;SDS011;28750;59.842;17.584;2022-07-29T13:24:57;1.98;;;0.40;;
43142;SDS011;28750;59.842;17.584;2022-07-29T13:27:28;0.30;;;0.30;;
43142;SDS011;28750;59.842;17.584;2022-07-29T13:29:57;0.40;;;0.40;;
43142;SDS011;28750;59.842;17.584;2022-07-29T13:32:26;0.75;;;0.30;;
43142;SDS011;28750;59.842;17.584;2022-07-29T13:34:55;0.40;;;0.40;;
43142;SDS011;28750;59.842;17.584;2022-07-29T13:37:23;0.40;;;0.40;;
43142;SDS011;28750;59.842;17.584;2022-07-29T13:39:50;0.35;;;0.35;;
43142;SDS011;28750;59.842;17.584;2022-07-29T13:42:19;1.17;;;0.60;;
43142;SDS011;28750;59.842;17.584;2022-07-29T13:44:46;1.45;;;0.32;;
43142;SDS011;28750;59.842;17.584;2022-07-29T13:47:16;0.28;;;0.25;;
43142;SDS011;28750;59.842;17.584;2022-07-29T13:49:43;0.40;;;0.40;;
43142;SDS011;28750;59.842;17.584;2022-07-29T13:52:10;0.40;;;0.40;;
43142;SDS011;28750;59.842;17.584;2022-07-29T13:54:37;0.40;;;0.40;;
43142;SDS011;28750;59.842;17.584;2022-07-29T13:57:04;0.50;;;0.50;;
43142;SDS011;28750;59.842;17.584;2022-07-29T13:59:31;1.55;;;0.30;;
43142;SDS011;28750;59.842;17.584;2022-07-29T14:01:58;0.50;;;0.50;;
43142;SDS011;28750;59.842;17.584;2022-07-29T14:04:25;0.40;;;0.40;;
43142;SDS011;28750;59.842;17.584;2022-07-29T14:06:52;0.30;;;0.30;;
43142;SDS011;28750;59.842;17.584;2022-07-29T14:09:19;0.50;;;0.50;;
43142;SDS011;28750;59.842;17.584;2022-07-29T14:11:46;1.00;;;0.40;;
43142;SDS011;28750;59.842;17.584;2022-07-29T14:14:15;0.52;;;0.30;;
43142;SDS011;28750;59.842;17.584;2022-07-29T14:16:42;0.65;;;0.47;;
43142;SDS011;28750;59.842;17.584;2022-07-29T14:19:09;0.40;;;0.40;;
43142;SDS011;28750;59.842;17.584;2022-07-29T14:21:36;0.50;;;0.45;;
43142;SDS011;28750;59.842;17.584;2022-07-29T14:24:04;0.52;;;0.35;;
43142;SDS011;28750;59.842;17.584;2022-07-29T14:26:32;1.83;;;0.43;;
43142;SDS011;28750;59.842;17.584;2022-07-29T14:28:59;0.65;;;0.57;;
43142;SDS011;28750;59.842;17.584;2022-07-29T14:31:26;0.50;;;0.50;;
43142;SDS011;28750;59.842;17.584;2022-07-29T14:33:52;0.40;;;0.40;;
43142;SDS011;28750;59.842;17.584;2022-07-29T14:36:19;0.30;;;0.30;;
43142;SDS011;28750;59.842;17.584;2022-07-29T14:38:46;0.50;;;0.50;;
43142;SDS011;28750;59.842;17.584;2022-07-29T14:41:13;0.95;;;0.60;;
43142;SDS011;28750;59.842;17.584;2022-07-29T14:43:40;0.50;;;0.50;;
43142;SDS011;28750;59.842;17.584;2022-07-29T14:46:07;1.35;;;0.70;;
43142;SDS011;28750;59.842;17.584;2022-07-29T14:48:34;0.40;;;0.40;;
43142;SDS011;28750;59.842;17.584;2022-07-29T14:51:01;0.40;;;0.40;;
43142;SDS011;28750;59.842;17.584;2022-07-29T14:53:28;0.57;;;0.57;;
43142;SDS011;28750;59.842;17.584;2022-07-29T14:55:55;0.45;;;0.45;;
43142;SDS011;28750;59.842;17.584;2022-07-29T14:58:22;0.50;;;0.50;;
43142;SDS011;28750;59.842;17.584;2022-07-29T15:00:49;0.50;;;0.50;;
43142;SDS011;28750;59.842;17.584;2022-07-29T15:03:16;0.52;;;0.52;;
43142;SDS011;28750;59.842;17.584;2022-07-29T15:05:43;0.50;;;0.50;;
43142;SDS011;28750;59.842;17.584;2022-07-29T15:08:10;0.55;;;0.55;;
43142;SDS011;28750;59.842;17.584;2022-07-29T15:10:37;0.88;;;0.60;;
43142;SDS011;28750;59.842;17.584;2022-07-29T15:13:04;1.95;;;0.57;;
43142;SDS011;28750;59.842;17.584;2022-07-29T15:15:31;0.50;;;0.50;;
43142;SDS011;28750;59.842;17.584;2022-07-29T15:17:58;0.40;;;0.40;;
43142;SDS011;28750;59.842;17.584;2022-07-29T15:20:25;0.40;;;0.40;;
43142;SDS011;28750;59.842;17.584;2022-07-29T15:22:52;1.17;;;0.50;;
43142;SDS011;28750;59.842;17.584;2022-07-29T15:25:21;2.38;;;0.50;;
43142;SDS011;28750;59.842;17.584;2022-07-29T15:27:48;1.65;;;0.70;;
43142;SDS011;28750;59.842;17.584;2022-07-29T15:30:16;0.40;;;0.40;;
43142;SDS011;28750;59.842;17.584;2022-07-29T15:32:43;0.65;;;0.50;;
43142;SDS011;28750;59.842;17.584;2022-07-29T15:35:10;1.27;;;0.60;;
43142;SDS011;28750;59.842;17.584;2022-07-29T15:37:38;0.60;;;0.50;;